»·PEaware :: N15JG KTSP-KUDD

N15JG :: KTSP-KUDD

FLIGHT INFORMATION

Flight Status: Arrived
Operator: Privately registered:
United States
More flights under this callsign
Pilot: Anonymous 11047 (11047)
Aircraft: CESSNA 172 SKYHAWK
(C172)
More flights by this aircraft type
Origin: KTSP Tehachapi Mun
United States
Destination: KUDD Bermuda Dunes
United States
More flights between these airports :: More routes between these airports
Route: PMD PSP
File this flight plan on PilotEdge
Remarks: Alphabet Challenge Flight
Altitude:
(Current/Filed)
9,500ft
Speed:
(Current/Filed)
110kts
Departed: 11-Mar-17 11:50 AM
Arrived: 11-Mar-17 01:16 PM
Distance/Time
Traveled:
136nm/1:26
Distance/Time
To Go:
Arrived

Flight Plot

Page will automatically refresh every two minutes.


Map Options




Map Legend


Flown Route
Filed Route
Departure Airport
Arrival Airport
Navaid (VOR, NDB)
Fix

Horizontal Profiles

Position Reports

Time Latitude Longitude Heading Altitude Ground
Speed
11-Mar-17 11:35 35.133487 -118.439098 308 3985ft 0kts
11-Mar-17 11:36 35.133487 -118.439098 308 3985ft 0kts
11-Mar-17 11:37 35.133487 -118.439098 308 3985ft 0kts
11-Mar-17 11:38 35.133487 -118.439098 308 3985ft 0kts
11-Mar-17 11:39 35.133487 -118.439098 307 3985ft 0kts
11-Mar-17 11:40 35.133487 -118.439098 308 3985ft 0kts
11-Mar-17 11:41 35.133487 -118.439098 308 3985ft 0kts
11-Mar-17 11:42 35.133487 -118.439098 308 3985ft 0kts
11-Mar-17 11:43 35.133487 -118.439098 308 3985ft 0kts
11-Mar-17 11:44 35.133487 -118.439098 308 3985ft 0kts
11-Mar-17 11:45 35.133487 -118.439098 308 3985ft 0kts
11-Mar-17 11:46 35.133487 -118.439098 308 3985ft 0kts
11-Mar-17 11:47 35.133487 -118.439098 308 3985ft 0kts
11-Mar-17 11:48 35.134456 -118.439697 305 3981ft 16kts
11-Mar-17 11:49 35.136605 -118.442809 304 3969ft 19kts
11-Mar-17 11:50 35.137292 -118.444052 304 3965ft 2kts
11-Mar-17 11:51 35.133505 -118.436583 124 4104ft 73kts
11-Mar-17 11:52 35.123511 -118.420794 147 4662ft 78kts
11-Mar-17 11:53 35.118352 -118.436670 336 5115ft 96kts
11-Mar-17 11:54 35.118644 -118.419898 145 5371ft 99kts
11-Mar-17 11:55 35.101241 -118.403957 139 6016ft 93kts
11-Mar-17 11:56 35.081035 -118.391790 153 6409ft 103kts
11-Mar-17 11:57 35.059828 -118.381064 151 6878ft 103kts
11-Mar-17 11:58 35.040924 -118.367214 140 7281ft 98kts
11-Mar-17 11:59 35.020608 -118.352232 140 7624ft 104kts
11-Mar-17 12:00 34.999605 -118.335736 143 7974ft 105kts
11-Mar-17 12:01 34.977848 -118.319814 144 8290ft 103kts
11-Mar-17 12:02 34.959521 -118.304773 142 8643ft 98kts
11-Mar-17 12:03 34.940914 -118.291178 141 8992ft 95kts
11-Mar-17 12:04 34.922912 -118.277612 142 9344ft 92kts
11-Mar-17 12:05 34.904552 -118.263672 143 9544ft 96kts
11-Mar-17 12:06 34.894444 -118.256811 146 9486ft 109kts
11-Mar-17 12:07 34.871394 -118.241138 141 9495ft 111kts
11-Mar-17 12:08 34.848806 -118.220542 140 9482ft 110kts
11-Mar-17 12:09 34.825963 -118.202482 110 9524ft 108kts
11-Mar-17 12:10 34.808797 -118.184939 147 9412ft 113kts
11-Mar-17 12:11 34.784764 -118.170058 151 9544ft 108kts
11-Mar-17 12:12 34.762865 -118.158132 158 9653ft 109kts
11-Mar-17 12:13 34.740410 -118.152700 164 9721ft 111kts
11-Mar-17 12:14 34.717654 -118.133759 131 9575ft 123kts
11-Mar-17 12:15 34.697211 -118.108862 147 9472ft 124kts
11-Mar-17 12:16 34.670245 -118.093079 152 9414ft 122kts
11-Mar-17 12:17 34.642828 -118.077555 152 9455ft 118kts
11-Mar-17 12:18 34.616004 -118.060667 134 9504ft 115kts
11-Mar-17 12:19 34.602407 -118.030346 111 9535ft 113kts
11-Mar-17 12:20 34.591129 -117.997843 112 9590ft 114kts
11-Mar-17 12:21 34.581762 -117.963935 99 9528ft 119kts
11-Mar-17 12:22 34.571146 -117.929437 121 9499ft 118kts
11-Mar-17 12:23 34.555475 -117.900904 119 9557ft 116kts
11-Mar-17 12:24 34.540000 -117.868395 119 9556ft 118kts
11-Mar-17 12:25 34.522502 -117.837272 123 9544ft 119kts
11-Mar-17 12:26 34.505917 -117.804526 116 9525ft 119kts
11-Mar-17 12:27 34.490910 -117.771578 118 9557ft 117kts
11-Mar-17 12:28 34.474630 -117.738915 115 9569ft 118kts
11-Mar-17 12:29 34.460735 -117.704862 114 9558ft 120kts
11-Mar-17 12:30 34.445744 -117.671200 115 9597ft 119kts
11-Mar-17 12:31 34.431034 -117.637659 116 9653ft 119kts
11-Mar-17 12:32 34.415685 -117.605079 118 9697ft 119kts
11-Mar-17 12:33 34.401358 -117.572700 113 9736ft 119kts
11-Mar-17 12:34 34.387400 -117.538296 113 9777ft 119kts
11-Mar-17 12:35 34.373157 -117.504235 115 9818ft 119kts
11-Mar-17 12:36 34.355750 -117.472264 128 9821ft 121kts
11-Mar-17 12:37 34.338582 -117.441944 115 9856ft 118kts
11-Mar-17 12:38 34.321970 -117.410761 123 9949ft 118kts
11-Mar-17 12:39 34.304345 -117.381278 122 10029ft 119kts
11-Mar-17 12:40 34.285712 -117.350827 127 10049ft 121kts
11-Mar-17 12:41 34.264681 -117.326223 137 10033ft 122kts
11-Mar-17 12:42 34.242103 -117.299599 131 9955ft 125kts
11-Mar-17 12:43 34.220041 -117.271675 132 9797ft 128kts
11-Mar-17 12:44 34.196737 -117.242635 136 9460ft 135kts
11-Mar-17 12:45 34.173407 -117.216144 130 9365ft 125kts
11-Mar-17 12:46 34.154102 -117.185503 125 9293ft 122kts
11-Mar-17 12:47 34.136010 -117.153931 123 9181ft 121kts
11-Mar-17 12:48 34.118750 -117.122695 122 9214ft 116kts
11-Mar-17 12:49 34.104773 -117.092022 113 9497ft 109kts
11-Mar-17 12:50 34.093109 -117.060334 120 9683ft 112kts
11-Mar-17 12:51 34.078055 -117.028286 115 9685ft 121kts
11-Mar-17 12:52 34.064581 -116.994668 115 9739ft 121kts
11-Mar-17 12:53 34.053095 -116.959965 107 9812ft 118kts
11-Mar-17 12:54 34.044461 -116.924153 103 9836ft 122kts
11-Mar-17 12:55 34.037996 -116.887684 101 9949ft 121kts
11-Mar-17 12:56 34.035123 -116.858415 96 9976ft 121kts
11-Mar-17 12:57 34.033770 -116.821932 87 9979ft 124kts
11-Mar-17 12:58 34.031969 -116.785348 95 9589ft 121kts
11-Mar-17 12:59 34.028575 -116.749104 99 9166ft 120kts
11-Mar-17 13:00 34.020123 -116.713764 108 8730ft 120kts
11-Mar-17 13:01 34.010021 -116.678443 111 8263ft 120kts
11-Mar-17 13:02 33.999900 -116.643019 109 7798ft 121kts
11-Mar-17 13:03 33.992575 -116.606845 102 7382ft 121kts
11-Mar-17 13:04 33.986163 -116.576548 105 7063ft 119kts
11-Mar-17 13:05 33.977895 -116.541074 106 6667ft 119kts
11-Mar-17 13:06 33.969065 -116.505842 108 6223ft 122kts
11-Mar-17 13:07 33.958482 -116.470762 111 5806ft 123kts
11-Mar-17 13:08 33.946484 -116.433883 111 5484ft 125kts
11-Mar-17 13:09 33.932953 -116.396966 114 5158ft 131kts
11-Mar-17 13:10 33.918882 -116.359296 118 4746ft 135kts
11-Mar-17 13:15 33.732754 -116.236910 296 701ft 92kts
11-Mar-17 13:16 33.742713 -116.260912 297 234ft 71kts
11-Mar-17 13:17 33.747317 -116.273146 202 77ft 0kts
11-Mar-17 13:18 33.746698 -116.272454 292 77ft 0kts
11-Mar-17 13:19 33.746698 -116.272454 292 77ft 0kts
11-Mar-17 13:20 33.746698 -116.272454 292 77ft 0kts
11-Mar-17 13:21 33.746698 -116.272454 292 77ft 0kts
11-Mar-17 13:22 33.746698 -116.272454 292 77ft 0kts
11-Mar-17 13:23 33.746698 -116.272454 292 77ft 0kts
11-Mar-17 13:24 33.746698 -116.272454 292 77ft 0kts

Navigation Log

Ident Type
1. KTSP Airport
2. PMD Navaid
3. PSP Navaid
4. KUDD Airport